sensor_id;sensor_type;location;lat;lon;timestamp;P1;durP1;ratioP1;P2;durP2;ratioP2
37777;SDS011;23615;51.506;7.678;2023-03-13T00:01:56;12.27;;;2.53;;
37777;SDS011;23615;51.506;7.678;2023-03-13T00:04:21;12.40;;;2.77;;
37777;SDS011;23615;51.506;7.678;2023-03-13T00:06:47;11.07;;;3.20;;
37777;SDS011;23615;51.506;7.678;2023-03-13T00:09:13;10.67;;;2.57;;
37777;SDS011;23615;51.506;7.678;2023-03-13T00:11:39;13.90;;;2.63;;
37777;SDS011;23615;51.506;7.678;2023-03-13T00:14:05;15.40;;;2.17;;
37777;SDS011;23615;51.506;7.678;2023-03-13T00:16:32;10.57;;;2.20;;
37777;SDS011;23615;51.506;7.678;2023-03-13T00:18:59;9.27;;;2.00;;
37777;SDS011;23615;51.506;7.678;2023-03-13T00:21:25;12.18;;;2.92;;
37777;SDS011;23615;51.506;7.678;2023-03-13T00:23:52;11.67;;;2.27;;
37777;SDS011;23615;51.506;7.678;2023-03-13T00:26:18;12.23;;;2.60;;
37777;SDS011;23615;51.506;7.678;2023-03-13T00:28:45;9.45;;;2.20;;
37777;SDS011;23615;51.506;7.678;2023-03-13T00:33:37;12.80;;;2.30;;
37777;SDS011;23615;51.506;7.678;2023-03-13T00:36:05;11.48;;;2.03;;
37777;SDS011;23615;51.506;7.678;2023-03-13T00:38:33;11.20;;;2.40;;
37777;SDS011;23615;51.506;7.678;2023-03-13T00:41:01;9.18;;;1.98;;
37777;SDS011;23615;51.506;7.678;2023-03-13T00:43:29;13.18;;;1.92;;
37777;SDS011;23615;51.506;7.678;2023-03-13T00:45:55;8.00;;;1.63;;
37777;SDS011;23615;51.506;7.678;2023-03-13T00:48:21;11.57;;;2.17;;
37777;SDS011;23615;51.506;7.678;2023-03-13T00:50:47;9.97;;;1.93;;
37777;SDS011;23615;51.506;7.678;2023-03-13T00:53:12;10.43;;;1.90;;
37777;SDS011;23615;51.506;7.678;2023-03-13T00:55:37;9.00;;;1.67;;
37777;SDS011;23615;51.506;7.678;2023-03-13T00:58:03;12.17;;;2.27;;
37777;SDS011;23615;51.506;7.678;2023-03-13T01:00:28;9.57;;;1.80;;
37777;SDS011;23615;51.506;7.678;2023-03-13T01:02:53;8.60;;;2.03;;
37777;SDS011;23615;51.506;7.678;2023-03-13T01:05:19;9.60;;;2.10;;
37777;SDS011;23615;51.506;7.678;2023-03-13T01:07:44;11.03;;;2.47;;
37777;SDS011;23615;51.506;7.678;2023-03-13T01:10:09;11.93;;;1.97;;
37777;SDS011;23615;51.506;7.678;2023-03-13T01:12:35;7.77;;;1.93;;
37777;SDS011;23615;51.506;7.678;2023-03-13T01:15:00;10.03;;;1.80;;
37777;SDS011;23615;51.506;7.678;2023-03-13T01:17:26;10.00;;;2.60;;
37777;SDS011;23615;51.506;7.678;2023-03-13T01:19:54;10.43;;;2.30;;
37777;SDS011;23615;51.506;7.678;2023-03-13T01:22:20;9.60;;;1.65;;
37777;SDS011;23615;51.506;7.678;2023-03-13T01:24:45;7.63;;;1.60;;
37777;SDS011;23615;51.506;7.678;2023-03-13T01:27:14;8.25;;;1.83;;
37777;SDS011;23615;51.506;7.678;2023-03-13T01:29:39;11.80;;;2.50;;
37777;SDS011;23615;51.506;7.678;2023-03-13T01:32:04;9.17;;;2.13;;
37777;SDS011;23615;51.506;7.678;2023-03-13T01:34:30;11.57;;;1.93;;
37777;SDS011;23615;51.506;7.678;2023-03-13T01:36:55;9.50;;;1.90;;
37777;SDS011;23615;51.506;7.678;2023-03-13T01:39:20;10.57;;;2.07;;
37777;SDS011;23615;51.506;7.678;2023-03-13T01:41:46;12.35;;;2.10;;
37777;SDS011;23615;51.506;7.678;2023-03-13T01:44:17;9.27;;;1.90;;
37777;SDS011;23615;51.506;7.678;2023-03-13T01:46:46;11.02;;;2.20;;
37777;SDS011;23615;51.506;7.678;2023-03-13T01:49:18;7.80;;;1.75;;
37777;SDS011;23615;51.506;7.678;2023-03-13T01:51:48;12.35;;;1.75;;
37777;SDS011;23615;51.506;7.678;2023-03-13T01:54:18;10.03;;;1.97;;
37777;SDS011;23615;51.506;7.678;2023-03-13T01:59:39;9.50;;;2.05;;
37777;SDS011;23615;51.506;7.678;2023-03-13T02:02:11;8.88;;;2.35;;
37777;SDS011;23615;51.506;7.678;2023-03-13T02:04:38;8.80;;;2.03;;
37777;SDS011;23615;51.506;7.678;2023-03-13T02:07:10;11.30;;;2.05;;
37777;SDS011;23615;51.506;7.678;2023-03-13T02:09:40;7.40;;;1.90;;
37777;SDS011;23615;51.506;7.678;2023-03-13T02:12:08;10.65;;;2.08;;
37777;SDS011;23615;51.506;7.678;2023-03-13T02:14:37;9.80;;;1.60;;
37777;SDS011;23615;51.506;7.678;2023-03-13T02:17:05;9.07;;;1.58;;
37777;SDS011;23615;51.506;7.678;2023-03-13T02:19:42;10.40;;;1.67;;
37777;SDS011;23615;51.506;7.678;2023-03-13T02:22:15;12.38;;;2.40;;
37777;SDS011;23615;51.506;7.678;2023-03-13T02:27:35;8.07;;;1.95;;
37777;SDS011;23615;51.506;7.678;2023-03-13T02:30:00;9.20;;;1.80;;
37777;SDS011;23615;51.506;7.678;2023-03-13T02:32:28;10.20;;;1.73;;
37777;SDS011;23615;51.506;7.678;2023-03-13T02:34:55;7.57;;;1.40;;
37777;SDS011;23615;51.506;7.678;2023-03-13T02:37:26;7.75;;;1.50;;
37777;SDS011;23615;51.506;7.678;2023-03-13T02:39:54;7.50;;;1.70;;
37777;SDS011;23615;51.506;7.678;2023-03-13T02:42:23;11.00;;;1.90;;
37777;SDS011;23615;51.506;7.678;2023-03-13T02:44:49;8.38;;;1.98;;
37777;SDS011;23615;51.506;7.678;2023-03-13T02:47:19;7.18;;;1.80;;
37777;SDS011;23615;51.506;7.678;2023-03-13T02:49:46;9.75;;;1.90;;
37777;SDS011;23615;51.506;7.678;2023-03-13T02:52:14;9.60;;;1.85;;
37777;SDS011;23615;51.506;7.678;2023-03-13T02:54:43;8.38;;;1.88;;
37777;SDS011;23615;51.506;7.678;2023-03-13T02:57:11;8.43;;;1.73;;
37777;SDS011;23615;51.506;7.678;2023-03-13T02:59:37;7.53;;;1.47;;
37777;SDS011;23615;51.506;7.678;2023-03-13T03:02:02;4.80;;;1.07;;
37777;SDS011;23615;51.506;7.678;2023-03-13T03:04:28;6.20;;;1.57;;
37777;SDS011;23615;51.506;7.678;2023-03-13T03:06:54;7.50;;;1.40;;
37777;SDS011;23615;51.506;7.678;2023-03-13T03:09:19;5.90;;;1.33;;
37777;SDS011;23615;51.506;7.678;2023-03-13T03:11:45;3.20;;;1.30;;
37777;SDS011;23615;51.506;7.678;2023-03-13T03:14:11;5.87;;;1.20;;
37777;SDS011;23615;51.506;7.678;2023-03-13T03:16:37;6.70;;;1.58;;
37777;SDS011;23615;51.506;7.678;2023-03-13T03:19:03;5.22;;;1.13;;
37777;SDS011;23615;51.506;7.678;2023-03-13T03:21:29;6.90;;;1.33;;
37777;SDS011;23615;51.506;7.678;2023-03-13T03:23:54;3.73;;;0.60;;
37777;SDS011;23615;51.506;7.678;2023-03-13T03:26:20;3.77;;;0.90;;
37777;SDS011;23615;51.506;7.678;2023-03-13T03:28:45;3.63;;;0.70;;
37777;SDS011;23615;51.506;7.678;2023-03-13T03:31:12;4.10;;;0.77;;
37777;SDS011;23615;51.506;7.678;2023-03-13T03:33:39;4.47;;;0.80;;
37777;SDS011;23615;51.506;7.678;2023-03-13T03:36:07;6.15;;;0.80;;
37777;SDS011;23615;51.506;7.678;2023-03-13T03:38:34;3.63;;;0.68;;
37777;SDS011;23615;51.506;7.678;2023-03-13T03:41:00;3.88;;;0.70;;
37777;SDS011;23615;51.506;7.678;2023-03-13T03:43:25;2.43;;;0.50;;
37777;SDS011;23615;51.506;7.678;2023-03-13T03:45:51;2.75;;;0.60;;
37777;SDS011;23615;51.506;7.678;2023-03-13T03:48:16;2.42;;;0.50;;
37777;SDS011;23615;51.506;7.678;2023-03-13T03:50:41;2.63;;;0.40;;
37777;SDS011;23615;51.506;7.678;2023-03-13T03:53:07;2.08;;;0.50;;
37777;SDS011;23615;51.506;7.678;2023-03-13T03:55:33;3.40;;;0.60;;
37777;SDS011;23615;51.506;7.678;2023-03-13T03:57:59;4.43;;;0.50;;
37777;SDS011;23615;51.506;7.678;2023-03-13T04:00:24;1.73;;;0.50;;
37777;SDS011;23615;51.506;7.678;2023-03-13T04:02:49;2.83;;;0.40;;
37777;SDS011;23615;51.506;7.678;2023-03-13T04:05:15;2.03;;;0.47;;
37777;SDS011;23615;51.506;7.678;2023-03-13T04:07:40;2.40;;;0.60;;
37777;SDS011;23615;51.506;7.678;2023-03-13T04:10:06;3.73;;;0.57;;
37777;SDS011;23615;51.506;7.678;2023-03-13T04:12:31;2.53;;;0.37;;
37777;SDS011;23615;51.506;7.678;2023-03-13T04:14:56;2.53;;;0.40;;
37777;SDS011;23615;51.506;7.678;2023-03-13T04:17:22;4.60;;;0.57;;
37777;SDS011;23615;51.506;7.678;2023-03-13T04:19:47;1.70;;;0.40;;
37777;SDS011;23615;51.506;7.678;2023-03-13T04:22:12;2.58;;;0.63;;
37777;SDS011;23615;51.506;7.678;2023-03-13T04:24:37;2.23;;;0.60;;
37777;SDS011;23615;51.506;7.678;2023-03-13T04:27:03;3.93;;;0.50;;
37777;SDS011;23615;51.506;7.678;2023-03-13T04:29:30;2.83;;;0.50;;
37777;SDS011;23615;51.506;7.678;2023-03-13T04:31:56;3.83;;;0.50;;
37777;SDS011;23615;51.506;7.678;2023-03-13T04:34:21;1.67;;;0.50;;
37777;SDS011;23615;51.506;7.678;2023-03-13T04:36:47;2.63;;;0.40;;
37777;SDS011;23615;51.506;7.678;2023-03-13T04:39:12;2.60;;;0.60;;
37777;SDS011;23615;51.506;7.678;2023-03-13T04:41:37;1.90;;;0.40;;
37777;SDS011;23615;51.506;7.678;2023-03-13T04:44:03;2.00;;;0.60;;
37777;SDS011;23615;51.506;7.678;2023-03-13T04:46:28;3.20;;;0.40;;
37777;SDS011;23615;51.506;7.678;2023-03-13T04:48:53;2.67;;;0.27;;
37777;SDS011;23615;51.506;7.678;2023-03-13T04:51:18;2.83;;;0.53;;
37777;SDS011;23615;51.506;7.678;2023-03-13T04:53:44;2.13;;;0.47;;
37777;SDS011;23615;51.506;7.678;2023-03-13T04:56:10;1.67;;;0.70;;
37777;SDS011;23615;51.506;7.678;2023-03-13T04:58:39;2.70;;;0.40;;
37777;SDS011;23615;51.506;7.678;2023-03-13T05:01:04;1.17;;;0.30;;
37777;SDS011;23615;51.506;7.678;2023-03-13T05:03:29;3.67;;;0.50;;
37777;SDS011;23615;51.506;7.678;2023-03-13T05:05:55;3.17;;;0.30;;
37777;SDS011;23615;51.506;7.678;2023-03-13T05:08:20;1.97;;;0.30;;
37777;SDS011;23615;51.506;7.678;2023-03-13T05:10:45;2.20;;;0.30;;
37777;SDS011;23615;51.506;7.678;2023-03-13T05:13:11;1.70;;;0.20;;
37777;SDS011;23615;51.506;7.678;2023-03-13T05:15:38;0.77;;;0.20;;
37777;SDS011;23615;51.506;7.678;2023-03-13T05:18:03;2.00;;;0.50;;
37777;SDS011;23615;51.506;7.678;2023-03-13T05:20:28;1.13;;;0.27;;
37777;SDS011;23615;51.506;7.678;2023-03-13T05:22:54;1.83;;;0.30;;
37777;SDS011;23615;51.506;7.678;2023-03-13T05:25:19;2.58;;;0.70;;
37777;SDS011;23615;51.506;7.678;2023-03-13T05:27:44;1.17;;;0.20;;
37777;SDS011;23615;51.506;7.678;2023-03-13T05:30:10;1.77;;;0.30;;
37777;SDS011;23615;51.506;7.678;2023-03-13T05:32:35;0.45;;;0.30;;
37777;SDS011;23615;51.506;7.678;2023-03-13T05:35:01;0.90;;;0.30;;
37777;SDS011;23615;51.506;7.678;2023-03-13T05:37:26;1.73;;;0.30;;
37777;SDS011;23615;51.506;7.678;2023-03-13T05:39:51;0.83;;;0.40;;
37777;SDS011;23615;51.506;7.678;2023-03-13T05:42:17;1.00;;;0.20;;
37777;SDS011;23615;51.506;7.678;2023-03-13T05:44:42;1.03;;;0.20;;
37777;SDS011;23615;51.506;7.678;2023-03-13T05:47:07;1.47;;;0.27;;
37777;SDS011;23615;51.506;7.678;2023-03-13T05:49:33;1.20;;;0.20;;
37777;SDS011;23615;51.506;7.678;2023-03-13T05:51:58;1.10;;;0.30;;
37777;SDS011;23615;51.506;7.678;2023-03-13T05:54:24;1.37;;;0.40;;
37777;SDS011;23615;51.506;7.678;2023-03-13T05:56:49;1.02;;;0.30;;
37777;SDS011;23615;51.506;7.678;2023-03-13T05:59:16;2.00;;;0.40;;
37777;SDS011;23615;51.506;7.678;2023-03-13T06:01:41;1.20;;;0.40;;
37777;SDS011;23615;51.506;7.678;2023-03-13T06:04:06;1.00;;;0.20;;
37777;SDS011;23615;51.506;7.678;2023-03-13T06:06:31;1.10;;;0.20;;
37777;SDS011;23615;51.506;7.678;2023-03-13T06:08:57;0.83;;;0.43;;
37777;SDS011;23615;51.506;7.678;2023-03-13T06:11:22;0.90;;;0.37;;
37777;SDS011;23615;51.506;7.678;2023-03-13T06:13:47;1.20;;;0.50;;
37777;SDS011;23615;51.506;7.678;2023-03-13T06:16:15;0.50;;;0.32;;
37777;SDS011;23615;51.506;7.678;2023-03-13T06:18:41;2.00;;;0.43;;
37777;SDS011;23615;51.506;7.678;2023-03-13T06:21:06;1.30;;;0.50;;
37777;SDS011;23615;51.506;7.678;2023-03-13T06:23:31;1.80;;;0.50;;
37777;SDS011;23615;51.506;7.678;2023-03-13T06:25:57;0.80;;;0.60;;
37777;SDS011;23615;51.506;7.678;2023-03-13T06:28:22;1.80;;;0.70;;
37777;SDS011;23615;51.506;7.678;2023-03-13T06:30:47;0.60;;;0.60;;
37777;SDS011;23615;51.506;7.678;2023-03-13T06:33:13;1.73;;;0.70;;
37777;SDS011;23615;51.506;7.678;2023-03-13T06:35:39;0.90;;;0.50;;
37777;SDS011;23615;51.506;7.678;2023-03-13T06:38:05;0.90;;;0.40;;
37777;SDS011;23615;51.506;7.678;2023-03-13T06:40:30;1.10;;;0.50;;
37777;SDS011;23615;51.506;7.678;2023-03-13T06:42:55;1.20;;;0.40;;
37777;SDS011;23615;51.506;7.678;2023-03-13T06:45:21;1.47;;;0.47;;
37777;SDS011;23615;51.506;7.678;2023-03-13T06:47:46;0.47;;;0.30;;
37777;SDS011;23615;51.506;7.678;2023-03-13T06:50:11;0.30;;;0.30;;
37777;SDS011;23615;51.506;7.678;2023-03-13T06:52:37;0.50;;;0.30;;
37777;SDS011;23615;51.506;7.678;2023-03-13T06:55:02;0.30;;;0.30;;
37777;SDS011;23615;51.506;7.678;2023-03-13T06:57:28;0.35;;;0.20;;
37777;SDS011;23615;51.506;7.678;2023-03-13T06:59:53;0.67;;;0.20;;
37777;SDS011;23615;51.506;7.678;2023-03-13T07:02:19;0.75;;;0.20;;
37777;SDS011;23615;51.506;7.678;2023-03-13T07:04:44;1.00;;;0.20;;
37777;SDS011;23615;51.506;7.678;2023-03-13T07:07:10;0.70;;;0.20;;
37777;SDS011;23615;51.506;7.678;2023-03-13T07:09:36;0.60;;;0.30;;
37777;SDS011;23615;51.506;7.678;2023-03-13T07:12:01;1.50;;;0.40;;
37777;SDS011;23615;51.506;7.678;2023-03-13T07:14:27;0.50;;;0.22;;
37777;SDS011;23615;51.506;7.678;2023-03-13T07:16:53;0.93;;;0.30;;
37777;SDS011;23615;51.506;7.678;2023-03-13T07:19:18;0.80;;;0.30;;
37777;SDS011;23615;51.506;7.678;2023-03-13T07:21:43;0.70;;;0.40;;
37777;SDS011;23615;51.506;7.678;2023-03-13T07:24:09;0.50;;;0.30;;
37777;SDS011;23615;51.506;7.678;2023-03-13T07:26:34;1.10;;;0.30;;
37777;SDS011;23615;51.506;7.678;2023-03-13T07:28:59;2.15;;;0.40;;
37777;SDS011;23615;51.506;7.678;2023-03-13T07:31:25;0.80;;;0.30;;
37777;SDS011;23615;51.506;7.678;2023-03-13T07:33:50;0.85;;;0.40;;
37777;SDS011;23615;51.506;7.678;2023-03-13T07:36:20;0.63;;;0.40;;
37777;SDS011;23615;51.506;7.678;2023-03-13T07:38:46;0.40;;;0.30;;
37777;SDS011;23615;51.506;7.678;2023-03-13T07:41:12;0.40;;;0.40;;
37777;SDS011;23615;51.506;7.678;2023-03-13T07:43:38;0.70;;;0.50;;
37777;SDS011;23615;51.506;7.678;2023-03-13T07:46:04;1.05;;;0.38;;
37777;SDS011;23615;51.506;7.678;2023-03-13T07:48:32;1.10;;;0.40;;
37777;SDS011;23615;51.506;7.678;2023-03-13T07:50:59;0.80;;;0.40;;
37777;SDS011;23615;51.506;7.678;2023-03-13T07:53:25;0.70;;;0.30;;
37777;SDS011;23615;51.506;7.678;2023-03-13T07:55:52;1.70;;;0.50;;
37777;SDS011;23615;51.506;7.678;2023-03-13T07:58:19;2.05;;;0.85;;
37777;SDS011;23615;51.506;7.678;2023-03-13T08:00:44;1.60;;;0.43;;
37777;SDS011;23615;51.506;7.678;2023-03-13T08:03:09;1.97;;;0.40;;
37777;SDS011;23615;51.506;7.678;2023-03-13T08:05:34;0.80;;;0.40;;
37777;SDS011;23615;51.506;7.678;2023-03-13T08:08:00;1.73;;;0.50;;
37777;SDS011;23615;51.506;7.678;2023-03-13T08:10:25;1.30;;;0.50;;
37777;SDS011;23615;51.506;7.678;2023-03-13T08:12:50;2.13;;;0.60;;
37777;SDS011;23615;51.506;7.678;2023-03-13T08:15:15;0.80;;;0.43;;
37777;SDS011;23615;51.506;7.678;2023-03-13T08:17:42;2.55;;;0.60;;
37777;SDS011;23615;51.506;7.678;2023-03-13T08:20:08;1.33;;;0.50;;
37777;SDS011;23615;51.506;7.678;2023-03-13T08:22:34;2.50;;;0.67;;
37777;SDS011;23615;51.506;7.678;2023-03-13T08:25:01;2.15;;;0.90;;
37777;SDS011;23615;51.506;7.678;2023-03-13T08:27:28;2.80;;;0.63;;
37777;SDS011;23615;51.506;7.678;2023-03-13T08:29:54;2.25;;;1.05;;
37777;SDS011;23615;51.506;7.678;2023-03-13T08:32:19;0.70;;;0.70;;
37777;SDS011;23615;51.506;7.678;2023-03-13T08:34:45;1.92;;;0.63;;
37777;SDS011;23615;51.506;7.678;2023-03-13T08:37:13;2.00;;;0.50;;
37777;SDS011;23615;51.506;7.678;2023-03-13T08:39:39;3.00;;;0.97;;
37777;SDS011;23615;51.506;7.678;2023-03-13T08:42:06;3.03;;;0.60;;
37777;SDS011;23615;51.506;7.678;2023-03-13T08:44:35;1.85;;;0.60;;
37777;SDS011;23615;51.506;7.678;2023-03-13T08:47:00;3.03;;;0.50;;
37777;SDS011;23615;51.506;7.678;2023-03-13T08:49:25;2.30;;;0.55;;
37777;SDS011;23615;51.506;7.678;2023-03-13T08:51:51;2.73;;;0.73;;
37777;SDS011;23615;51.506;7.678;2023-03-13T08:54:16;1.30;;;0.60;;
37777;SDS011;23615;51.506;7.678;2023-03-13T08:56:41;1.53;;;0.93;;
37777;SDS011;23615;51.506;7.678;2023-03-13T08:59:08;2.57;;;0.67;;
37777;SDS011;23615;51.506;7.678;2023-03-13T09:01:34;1.55;;;0.68;;
37777;SDS011;23615;51.506;7.678;2023-03-13T09:04:01;4.43;;;1.10;;
37777;SDS011;23615;51.506;7.678;2023-03-13T09:06:27;4.20;;;0.85;;
37777;SDS011;23615;51.506;7.678;2023-03-13T09:08:54;2.70;;;0.50;;
37777;SDS011;23615;51.506;7.678;2023-03-13T09:11:21;2.55;;;0.85;;
37777;SDS011;23615;51.506;7.678;2023-03-13T09:13:48;2.60;;;0.60;;
37777;SDS011;23615;51.506;7.678;2023-03-13T09:16:15;4.60;;;1.20;;
37777;SDS011;23615;51.506;7.678;2023-03-13T09:18:42;2.58;;;0.80;;
37777;SDS011;23615;51.506;7.678;2023-03-13T09:21:10;2.50;;;0.77;;
37777;SDS011;23615;51.506;7.678;2023-03-13T09:23:37;2.72;;;1.33;;
37777;SDS011;23615;51.506;7.678;2023-03-13T09:26:03;4.05;;;1.00;;
37777;SDS011;23615;51.506;7.678;2023-03-13T09:28:28;2.97;;;1.20;;
37777;SDS011;23615;51.506;7.678;2023-03-13T09:30:54;3.23;;;1.20;;
37777;SDS011;23615;51.506;7.678;2023-03-13T09:33:20;4.50;;;1.60;;
37777;SDS011;23615;51.506;7.678;2023-03-13T09:35:48;4.28;;;1.50;;
37777;SDS011;23615;51.506;7.678;2023-03-13T09:38:18;5.75;;;1.50;;
37777;SDS011;23615;51.506;7.678;2023-03-13T09:40:48;2.60;;;1.00;;
37777;SDS011;23615;51.506;7.678;2023-03-13T09:43:31;2.77;;;1.13;;
37777;SDS011;23615;51.506;7.678;2023-03-13T09:46:02;7.78;;;1.48;;
37777;SDS011;23615;51.506;7.678;2023-03-13T09:48:31;3.20;;;1.03;;
37777;SDS011;23615;51.506;7.678;2023-03-13T09:53:52;4.47;;;1.80;;
37777;SDS011;23615;51.506;7.678;2023-03-13T09:56:40;3.25;;;1.10;;
37777;SDS011;23615;51.506;7.678;2023-03-13T10:01:38;3.57;;;1.30;;
37777;SDS011;23615;51.506;7.678;2023-03-13T10:04:11;2.28;;;1.13;;
37777;SDS011;23615;51.506;7.678;2023-03-13T10:06:43;3.40;;;1.67;;
37777;SDS011;23615;51.506;7.678;2023-03-13T10:09:18;4.20;;;1.20;;
37777;SDS011;23615;51.506;7.678;2023-03-13T10:12:07;2.20;;;1.20;;
37777;SDS011;23615;51.506;7.678;2023-03-13T10:15:05;2.15;;;1.20;;
37777;SDS011;23615;51.506;7.678;2023-03-13T10:17:47;3.08;;;0.93;;
37777;SDS011;23615;51.506;7.678;2023-03-13T10:22:38;3.87;;;1.20;;
37777;SDS011;23615;51.506;7.678;2023-03-13T10:25:23;3.22;;;1.05;;
37777;SDS011;23615;51.506;7.678;2023-03-13T10:27:52;3.13;;;1.00;;
37777;SDS011;23615;51.506;7.678;2023-03-13T10:30:27;2.03;;;1.02;;
37777;SDS011;23615;51.506;7.678;2023-03-13T10:32:58;1.70;;;0.70;;
37777;SDS011;23615;51.506;7.678;2023-03-13T10:35:34;1.33;;;0.80;;
37777;SDS011;23615;51.506;7.678;2023-03-13T10:38:03;2.45;;;1.08;;
37777;SDS011;23615;51.506;7.678;2023-03-13T10:40:30;3.80;;;0.70;;
37777;SDS011;23615;51.506;7.678;2023-03-13T10:43:01;2.65;;;0.50;;
37777;SDS011;23615;51.506;7.678;2023-03-13T10:45:32;2.83;;;0.52;;
37777;SDS011;23615;51.506;7.678;2023-03-13T10:48:01;1.23;;;0.60;;
37777;SDS011;23615;51.506;7.678;2023-03-13T10:50:48;1.48;;;0.50;;
37777;SDS011;23615;51.506;7.678;2023-03-13T10:55:45;1.80;;;0.50;;
37777;SDS011;23615;51.506;7.678;2023-03-13T10:58:17;1.08;;;0.30;;
37777;SDS011;23615;51.506;7.678;2023-03-13T11:00:45;1.13;;;0.30;;
37777;SDS011;23615;51.506;7.678;2023-03-13T11:03:25;1.10;;;0.40;;
37777;SDS011;23615;51.506;7.678;2023-03-13T11:05:58;1.30;;;0.35;;
37777;SDS011;23615;51.506;7.678;2023-03-13T11:08:26;0.95;;;0.30;;
37777;SDS011;23615;51.506;7.678;2023-03-13T11:13:26;2.42;;;0.60;;
37777;SDS011;23615;51.506;7.678;2023-03-13T11:18:57;0.63;;;0.30;;
37777;SDS011;23615;51.506;7.678;2023-03-13T11:24:39;0.30;;;0.20;;
37777;SDS011;23615;51.506;7.678;2023-03-13T11:33:33;0.30;;;0.20;;
37777;SDS011;23615;51.506;7.678;2023-03-13T11:38:12;2.28;;;0.32;;
37777;SDS011;23615;51.506;7.678;2023-03-13T11:40:47;2.25;;;0.20;;
37777;SDS011;23615;51.506;7.678;2023-03-13T11:43:43;1.10;;;0.25;;
37777;SDS011;23615;51.506;7.678;2023-03-13T11:46:32;2.10;;;0.20;;
37777;SDS011;23615;51.506;7.678;2023-03-13T11:57:37;1.42;;;0.20;;
37777;SDS011;23615;51.506;7.678;2023-03-13T12:05:31;2.05;;;0.30;;
37777;SDS011;23615;51.506;7.678;2023-03-13T12:08:05;0.67;;;0.20;;
37777;SDS011;23615;51.506;7.678;2023-03-13T12:10:40;1.10;;;0.30;;
37777;SDS011;23615;51.506;7.678;2023-03-13T12:13:15;0.50;;;0.10;;
37777;SDS011;23615;51.506;7.678;2023-03-13T12:15:46;0.50;;;0.20;;
37777;SDS011;23615;51.506;7.678;2023-03-13T12:18:22;1.27;;;0.35;;
37777;SDS011;23615;51.506;7.678;2023-03-13T12:20:55;1.80;;;0.10;;
37777;SDS011;23615;51.506;7.678;2023-03-13T12:26:07;1.30;;;0.10;;
37777;SDS011;23615;51.506;7.678;2023-03-13T12:28:44;0.80;;;0.10;;
37777;SDS011;23615;51.506;7.678;2023-03-13T12:31:18;1.70;;;0.20;;
37777;SDS011;23615;51.506;7.678;2023-03-13T12:42:17;1.33;;;0.10;;
37777;SDS011;23615;51.506;7.678;2023-03-13T12:44:54;0.75;;;0.10;;
37777;SDS011;23615;51.506;7.678;2023-03-13T12:47:24;0.10;;;0.10;;
37777;SDS011;23615;51.506;7.678;2023-03-13T12:57:58;0.55;;;0.10;;
37777;SDS011;23615;51.506;7.678;2023-03-13T13:00:26;1.33;;;0.10;;
37777;SDS011;23615;51.506;7.678;2023-03-13T13:05:39;2.00;;;0.10;;
37777;SDS011;23615;51.506;7.678;2023-03-13T13:08:23;1.15;;;0.10;;
37777;SDS011;23615;51.506;7.678;2023-03-13T13:10:50;0.90;;;0.10;;
37777;SDS011;23615;51.506;7.678;2023-03-13T13:13:16;0.90;;;0.10;;
37777;SDS011;23615;51.506;7.678;2023-03-13T13:15:45;1.90;;;0.30;;
37777;SDS011;23615;51.506;7.678;2023-03-13T13:18:23;0.95;;;0.35;;
37777;SDS011;23615;51.506;7.678;2023-03-13T13:23:34;2.13;;;0.25;;
37777;SDS011;23615;51.506;7.678;2023-03-13T13:28:50;1.25;;;0.20;;
37777;SDS011;23615;51.506;7.678;2023-03-13T13:37:02;0.50;;;0.10;;
37777;SDS011;23615;51.506;7.678;2023-03-13T13:39:50;1.50;;;0.20;;
37777;SDS011;23615;51.506;7.678;2023-03-13T13:45:01;0.60;;;0.10;;
37777;SDS011;23615;51.506;7.678;2023-03-13T13:47:27;1.05;;;0.10;;
37777;SDS011;23615;51.506;7.678;2023-03-13T13:49:55;1.38;;;0.10;;
37777;SDS011;23615;51.506;7.678;2023-03-13T13:52:36;1.20;;;0.10;;
37777;SDS011;23615;51.506;7.678;2023-03-13T13:55:28;1.45;;;0.30;;
37777;SDS011;23615;51.506;7.678;2023-03-13T13:58:19;1.50;;;0.10;;
37777;SDS011;23615;51.506;7.678;2023-03-13T14:00:58;2.10;;;0.40;;
37777;SDS011;23615;51.506;7.678;2023-03-13T14:03:26;1.08;;;0.17;;
37777;SDS011;23615;51.506;7.678;2023-03-13T14:06:00;0.32;;;0.10;;
37777;SDS011;23615;51.506;7.678;2023-03-13T14:08:29;0.90;;;0.10;;
37777;SDS011;23615;51.506;7.678;2023-03-13T14:11:08;2.72;;;0.20;;
37777;SDS011;23615;51.506;7.678;2023-03-13T14:14:07;1.20;;;0.20;;
37777;SDS011;23615;51.506;7.678;2023-03-13T14:16:45;1.73;;;0.32;;
37777;SDS011;23615;51.506;7.678;2023-03-13T14:19:23;1.70;;;0.20;;
37777;SDS011;23615;51.506;7.678;2023-03-13T14:21:59;0.25;;;0.10;;
37777;SDS011;23615;51.506;7.678;2023-03-13T14:24:32;2.35;;;0.20;;
37777;SDS011;23615;51.506;7.678;2023-03-13T14:27:01;2.10;;;0.10;;
37777;SDS011;23615;51.506;7.678;2023-03-13T14:29:41;2.20;;;0.25;;
37777;SDS011;23615;51.506;7.678;2023-03-13T14:32:06;3.13;;;0.17;;
37777;SDS011;23615;51.506;7.678;2023-03-13T14:34:32;2.47;;;0.40;;
37777;SDS011;23615;51.506;7.678;2023-03-13T14:36:58;3.20;;;0.30;;
37777;SDS011;23615;51.506;7.678;2023-03-13T14:42:00;1.33;;;0.38;;
37777;SDS011;23615;51.506;7.678;2023-03-13T14:44:27;2.20;;;0.20;;
37777;SDS011;23615;51.506;7.678;2023-03-13T14:46:56;1.20;;;0.40;;
37777;SDS011;23615;51.506;7.678;2023-03-13T14:49:25;3.10;;;0.20;;
37777;SDS011;23615;51.506;7.678;2023-03-13T14:54:50;1.60;;;0.20;;
37777;SDS011;23615;51.506;7.678;2023-03-13T14:57:19;1.55;;;0.20;;
37777;SDS011;23615;51.506;7.678;2023-03-13T14:59:47;1.40;;;0.20;;
37777;SDS011;23615;51.506;7.678;2023-03-13T15:02:23;2.47;;;0.30;;
37777;SDS011;23615;51.506;7.678;2023-03-13T15:04:53;1.65;;;0.17;;
37777;SDS011;23615;51.506;7.678;2023-03-13T15:08:09;2.00;;;0.30;;
37777;SDS011;23615;51.506;7.678;2023-03-13T15:10:21;1.20;;;0.20;;
37777;SDS011;23615;51.506;7.678;2023-03-13T15:12:47;3.45;;;0.25;;
37777;SDS011;23615;51.506;7.678;2023-03-13T15:15:16;2.55;;;0.30;;
37777;SDS011;23615;51.506;7.678;2023-03-13T15:17:41;4.10;;;0.32;;
37777;SDS011;23615;51.506;7.678;2023-03-13T15:20:09;0.43;;;0.10;;
37777;SDS011;23615;51.506;7.678;2023-03-13T15:22:37;2.00;;;0.30;;
37777;SDS011;23615;51.506;7.678;2023-03-13T15:25:08;2.45;;;0.40;;
37777;SDS011;23615;51.506;7.678;2023-03-13T15:27:48;2.60;;;0.20;;
37777;SDS011;23615;51.506;7.678;2023-03-13T15:30:18;0.85;;;0.20;;
37777;SDS011;23615;51.506;7.678;2023-03-13T15:32:47;1.40;;;0.40;;
37777;SDS011;23615;51.506;7.678;2023-03-13T15:35:32;2.83;;;0.30;;
37777;SDS011;23615;51.506;7.678;2023-03-13T15:37:58;1.55;;;0.22;;
37777;SDS011;23615;51.506;7.678;2023-03-13T15:40:26;0.47;;;0.23;;
37777;SDS011;23615;51.506;7.678;2023-03-13T15:42:52;0.70;;;0.17;;
37777;SDS011;23615;51.506;7.678;2023-03-13T15:45:18;2.42;;;0.20;;
37777;SDS011;23615;51.506;7.678;2023-03-13T15:47:45;1.40;;;0.20;;
37777;SDS011;23615;51.506;7.678;2023-03-13T15:50:11;1.40;;;0.20;;
37777;SDS011;23615;51.506;7.678;2023-03-13T15:52:38;0.35;;;0.20;;
37777;SDS011;23615;51.506;7.678;2023-03-13T15:55:08;1.20;;;0.20;;
37777;SDS011;23615;51.506;7.678;2023-03-13T15:57:35;0.82;;;0.20;;
37777;SDS011;23615;51.506;7.678;2023-03-13T16:00:03;1.00;;;0.20;;
37777;SDS011;23615;51.506;7.678;2023-03-13T16:02:31;0.20;;;0.10;;
37777;SDS011;23615;51.506;7.678;2023-03-13T16:04:57;0.67;;;0.30;;
37777;SDS011;23615;51.506;7.678;2023-03-13T16:07:22;2.77;;;0.20;;
37777;SDS011;23615;51.506;7.678;2023-03-13T16:09:48;1.08;;;0.30;;
37777;SDS011;23615;51.506;7.678;2023-03-13T16:12:14;1.08;;;0.20;;
37777;SDS011;23615;51.506;7.678;2023-03-13T16:14:42;0.90;;;0.20;;
37777;SDS011;23615;51.506;7.678;2023-03-13T16:17:17;1.00;;;0.20;;
37777;SDS011;23615;51.506;7.678;2023-03-13T16:19:45;1.00;;;0.20;;
37777;SDS011;23615;51.506;7.678;2023-03-13T16:22:11;1.33;;;0.20;;
37777;SDS011;23615;51.506;7.678;2023-03-13T16:24:36;1.10;;;0.20;;